Main page
METAR-TAF:

METAR-TAF

Airports :

Lavan Airport

Lavan Island, Iran

latitude: 26-48-37N, longitude: 53-21-22E, elevation: 23 m

Current weather observation

The report was made 8 hours and 24 minutes ago, at 17:00 UTC
Calm wind
Temperature 25°C
Humidity 89%
Pressure 1004 hPa
Visibility: 4000 m
mist,

METAR: OIBV 241700Z 00000KT 4000 BR NSC 25/23 Q1004

Time: 05:54 (01:24 UTC)


TAF: missing

Weather observations and forecasts of more than 4000 airports (METAR and TAF reports).

The available stations are represented by yellow and red dots on the map.

Hover mouse over dot to see the name of the station.

Then click to see weather observations and forecasts.

To change the map : click on the green buttons with a black cross to zoom in, on the green button with a dash to zoom out, or on the green arrows for adjacent maps.


METAR-TAF: